Time;durP1;ratioP1;P1;durP2;ratioP2;P2;SDS_P1;SDS_P2;PMS_P1;PMS_P2;Temp;Humidity;BMP_temperature;BMP_pressure;BME280_temperature;BME280_humidity;BME280_pressure;Samples;Min_cycle;Max_cycle;Signal;HPM_P1;HPM_P2
2022/12/03 00:01:32;;;;;;;22.80;12.35;;;;;;;1.47;77.49;92648.78;2064668;69;20141;-78
2022/12/03 00:03:59;;;;;;;27.98;14.23;;;;;;;1.37;77.64;92644.31;2064422;69;20227;-75
2022/12/03 00:06:25;;;;;;;22.42;11.73;;;;;;;1.32;77.65;92653.56;2064631;69;20179;-75
2022/12/03 00:08:50;;;;;;;27.48;13.30;;;;;;;1.23;77.74;92655.56;2064731;69;20145;-75
2022/12/03 00:11:16;;;;;;;25.65;13.13;;;;;;;1.20;78.21;92656.69;2064565;69;20172;-75
2022/12/03 00:13:41;;;;;;;25.55;13.20;;;;;;;1.34;78.14;92653.75;2064782;69;20129;-76
2022/12/03 00:16:07;;;;;;;23.48;12.85;;;;;;;1.24;77.81;92653.56;2064116;69;20168;-76
2022/12/03 00:18:34;;;;;;;29.10;15.55;;;;;;;1.12;78.15;92657.97;2064471;69;20343;-76
2022/12/03 00:20:59;;;;;;;24.75;12.95;;;;;;;1.16;78.78;92672.22;2064792;69;20581;-76
2022/12/03 00:23:25;;;;;;;24.77;13.23;;;;;;;1.08;78.27;92652.03;2063914;69;20164;-77
2022/12/03 00:25:51;;;;;;;26.63;13.18;;;;;;;1.14;78.52;92658.13;2064539;69;20138;-77
2022/12/03 00:28:16;;;;;;;25.30;14.00;;;;;;;1.16;78.95;92658.34;2064318;69;20198;-77
2022/12/03 00:30:43;;;;;;;25.33;12.48;;;;;;;1.15;77.75;92654.84;2064608;69;20150;-78
2022/12/03 00:33:08;;;;;;;30.33;15.15;;;;;;;1.12;79.11;92663.50;2064652;69;20559;-77
2022/12/03 00:35:34;;;;;;;25.65;13.25;;;;;;;0.98;78.19;92655.34;2064671;69;20184;-77
2022/12/03 00:38:00;;;;;;;27.65;12.73;;;;;;;1.05;77.42;92658.66;2064462;69;20591;-76
2022/12/03 00:40:25;;;;;;;20.88;11.57;;;;;;;0.88;77.14;92645.34;2064485;69;20605;-77
2022/12/03 00:42:52;;;;;;;23.92;12.80;;;;;;;0.77;78.50;92652.66;2063985;69;20141;-78
2022/12/03 00:45:19;;;;;;;25.90;12.52;;;;;;;0.96;78.97;92657.94;2064680;69;20153;-77
2022/12/03 00:47:45;;;;;;;24.58;12.55;;;;;;;0.86;77.72;92670.81;2064392;69;20152;-76
2022/12/03 00:50:13;;;;;;;24.52;12.32;;;;;;;0.84;78.40;92665.09;2064071;69;20153;-77
2022/12/03 00:52:39;;;;;;;26.63;14.00;;;;;;;0.91;78.01;92667.13;2064538;69;20219;-77
2022/12/03 00:55:04;;;;;;;29.15;14.82;;;;;;;0.91;78.51;92671.94;2064357;69;20160;-76
2022/12/03 00:57:30;;;;;;;32.17;16.92;;;;;;;0.88;78.30;92665.47;2064493;69;20176;-78
2022/12/03 00:59:56;;;;;;;27.95;15.18;;;;;;;0.79;77.74;92679.09;2064636;69;20145;-78
2022/12/03 01:02:23;;;;;;;25.13;12.93;;;;;;;0.75;77.61;92671.88;2064603;69;20156;-77
2022/12/03 01:04:48;;;;;;;22.00;11.25;;;;;;;0.77;78.00;92660.25;2064544;69;20141;-78
2022/12/03 01:07:14;;;;;;;21.08;11.25;;;;;;;0.77;78.16;92663.00;2064697;69;20255;-80
2022/12/03 01:09:42;;;;;;;18.45;9.88;;;;;;;0.65;78.03;92672.94;2064010;69;20238;-77
2022/12/03 01:12:08;;;;;;;18.10;10.25;;;;;;;0.73;78.42;92673.72;2064726;69;20134;-76
2022/12/03 01:14:34;;;;;;;22.77;11.23;;;;;;;0.70;77.49;92672.78;2065010;69;20164;-76
2022/12/03 01:16:59;;;;;;;44.10;18.98;;;;;;;0.73;78.45;92662.63;2064636;69;20184;-77
2022/12/03 01:19:25;;;;;;;22.13;11.38;;;;;;;0.77;78.85;92663.00;2064374;69;20183;-76
2022/12/03 01:21:52;;;;;;;24.55;12.77;;;;;;;0.56;79.03;92668.66;2064529;69;20145;-76
2022/12/03 01:24:18;;;;;;;23.17;11.02;;;;;;;0.55;79.93;92663.66;2064453;69;20153;-76
2022/12/03 01:26:44;;;;;;;18.63;10.35;;;;;;;0.64;78.34;92666.69;2063846;69;20179;-77
2022/12/03 01:29:10;;;;;;;20.10;10.43;;;;;;;0.54;79.06;92660.13;2064323;69;20531;-77
2022/12/03 01:34:19;;;;;;;13.73;7.68;;;;;;;0.59;78.63;92653.69;2064346;69;20153;-77
2022/12/03 01:36:45;;;;;;;14.32;7.78;;;;;;;0.58;78.65;92659.78;2064079;69;20153;-78
2022/12/03 01:39:12;;;;;;;14.65;7.97;;;;;;;0.47;78.88;92663.63;2064353;69;20152;-78
2022/12/03 01:41:38;;;;;;;16.90;8.45;;;;;;;0.28;79.91;92652.81;2064553;69;20157;-76
2022/12/03 01:44:16;;;;;;;14.85;7.95;;;;;;;0.50;79.32;92662.53;2063701;69;20138;-76
2022/12/03 01:46:42;;;;;;;15.55;8.23;;;;;;;0.39;78.56;92646.97;2064317;69;20175;-77
2022/12/03 01:49:29;;;;;;;16.08;8.57;;;;;;;0.47;77.45;92658.81;2064442;69;20592;-78
2022/12/03 01:51:56;;;;;;;14.93;7.95;;;;;;;0.44;78.21;92648.84;2064412;69;20240;-78
2022/12/03 01:54:31;;;;;;;14.60;7.40;;;;;;;0.54;79.19;92651.81;2064351;69;20153;-78
2022/12/03 01:56:57;;;;;;;14.50;7.40;;;;;;;0.41;78.96;92649.19;2064305;69;20523;-78
2022/12/03 01:59:48;;;;;;;16.23;7.97;;;;;;;0.33;78.84;92662.28;2064103;69;20156;-78
2022/12/03 02:02:22;;;;;;;15.50;8.10;;;;;;;0.32;78.96;92656.00;2064020;69;20149;-79
2022/12/03 02:04:48;;;;;;;16.83;8.00;;;;;;;0.27;78.60;92664.44;2063666;69;20173;-75
2022/12/03 02:07:24;;;;;;;14.88;7.80;;;;;;;0.19;78.19;92659.59;2064208;69;20663;-75
2022/12/03 02:09:50;;;;;;;16.08;8.20;;;;;;;0.22;78.35;92671.59;2064336;69;20168;-76
2022/12/03 02:12:22;;;;;;;15.10;8.43;;;;;;;-0.05;80.03;92669.03;2064082;69;20368;-76
2022/12/03 02:14:48;;;;;;;15.52;8.80;;;;;;;-0.01;79.28;92663.88;2064014;69;20223;-76
2022/12/03 02:17:15;;;;;;;13.98;7.93;;;;;;;0.11;78.57;92677.44;2064064;69;20195;-77
2022/12/03 02:19:41;;;;;;;15.60;8.07;;;;;;;0.06;78.52;92675.56;2064106;69;20152;-76
2022/12/03 02:22:49;;;;;;;21.48;9.27;;;;;;;0.05;79.44;92676.88;2064213;69;20599;-77
2022/12/03 02:25:31;;;;;;;16.27;8.73;;;;;;;-0.17;78.51;92681.69;2062937;69;20160;-76
2022/12/03 02:27:57;;;;;;;16.20;8.13;;;;;;;-0.17;80.04;92656.03;2064179;69;20603;-77
2022/12/03 02:30:25;;;;;;;18.90;8.82;;;;;;;-0.16;78.88;92655.50;2064150;69;20133;-77
2022/12/03 02:32:52;;;;;;;19.75;9.10;;;;;;;-0.13;80.26;92671.00;2063981;69;20149;-76
2022/12/03 02:35:21;;;;;;;16.30;8.70;;;;;;;-0.13;79.46;92668.25;2064884;69;20532;-78
2022/12/03 02:37:56;;;;;;;17.27;8.85;;;;;;;-0.02;78.70;92667.22;2064857;69;20156;-77
2022/12/03 02:40:26;;;;;;;18.40;8.32;;;;;;;-0.08;78.23;92652.78;2064797;69;20531;-78
2022/12/03 02:42:55;;;;;;;14.88;7.97;;;;;;;-0.04;78.99;92653.19;2064866;69;20168;-82
2022/12/03 02:45:25;;;;;;;15.60;8.20;;;;;;;-0.04;78.97;92665.00;2064809;69;20160;-79
2022/12/03 02:48:16;;;;;;;16.73;8.10;;;;;;;-0.09;79.04;92678.94;2064559;69;20156;-78
2022/12/03 02:50:48;;;;;;;16.63;7.93;;;;;;;-0.01;78.21;92671.44;2066298;69;20240;-77
2022/12/03 02:53:41;;;;;;;14.60;7.43;;;;;;;-0.32;77.78;92635.28;2065078;69;20229;-79
2022/12/03 02:56:10;;;;;;;15.73;8.52;;;;;;;-0.56;81.37;92666.03;2064707;69;20271;-78
2022/12/03 02:58:37;;;;;;;16.65;8.15;;;;;;;-0.42;82.09;92669.47;2064273;69;20196;-78
2022/12/03 03:01:03;;;;;;;14.10;7.72;;;;;;;-0.28;80.87;92670.88;2064064;69;20296;-78
2022/12/03 03:03:31;;;;;;;14.88;7.75;;;;;;;-0.20;80.24;92670.94;2064645;69;20611;-77
2022/12/03 03:06:00;;;;;;;17.02;7.78;;;;;;;-0.16;79.10;92671.34;2064538;69;20149;-77
2022/12/03 03:08:27;;;;;;;19.65;7.45;;;;;;;-0.14;79.29;92666.00;2064599;69;20188;-81
2022/12/03 03:10:53;;;;;;;15.88;7.97;;;;;;;-0.29;78.94;92664.59;2064276;69;20149;-81
2022/12/03 03:13:19;;;;;;;12.30;6.82;;;;;;;-0.21;79.46;92667.44;2064315;69;20148;-81
2022/12/03 03:15:50;;;;;;;14.68;7.35;;;;;;;-0.50;81.21;92674.97;2064852;69;20156;-80
2022/12/03 03:18:17;;;;;;;12.88;7.20;;;;;;;-0.38;79.90;92669.88;2064597;69;20264;-77
2022/12/03 03:20:43;;;;;;;11.85;7.28;;;;;;;-0.31;78.73;92663.69;2064840;69;20158;-77
2022/12/03 03:23:21;;;;;;;13.07;6.50;;;;;;;-0.59;78.43;92643.00;2064718;69;20564;-78
2022/12/03 03:26:06;;;;;;;12.00;6.60;;;;;;;-0.54;79.45;92683.59;2064268;69;20510;-79
2022/12/03 03:28:35;;;;;;;13.85;6.55;;;;;;;-0.49;80.26;92672.94;2064759;69;20160;-77
2022/12/03 03:31:05;;;;;;;12.75;7.05;;;;;;;-0.46;79.32;92664.28;2064829;69;20220;-77
2022/12/03 03:33:31;;;;;;;16.73;7.05;;;;;;;-0.47;80.29;92665.56;2064800;69;20584;-81
2022/12/03 03:35:59;;;;;;;12.38;6.90;;;;;;;-0.56;79.27;92661.25;2065677;69;20622;-81
2022/12/03 03:38:26;;;;;;;12.85;6.55;;;;;;;-0.46;79.40;92675.34;2064500;69;20173;-79
2022/12/03 03:40:52;;;;;;;12.75;6.85;;;;;;;-0.46;79.06;92677.38;2064694;69;20255;-79
2022/12/03 03:43:20;;;;;;;11.20;6.03;;;;;;;-0.36;78.34;92679.13;2064604;69;20149;-79
2022/12/03 03:45:47;;;;;;;13.05;6.63;;;;;;;-0.41;78.89;92685.56;2064977;69;20160;-79
2022/12/03 03:48:16;;;;;;;11.48;6.30;;;;;;;-0.59;77.47;92684.47;2064567;69;20141;-78
2022/12/03 03:50:43;;;;;;;14.75;6.97;;;;;;;-0.62;80.12;92693.81;2064593;69;20323;-80
2022/12/03 03:53:11;;;;;;;15.02;6.65;;;;;;;-0.92;80.00;92638.25;2064686;69;20145;-79
2022/12/03 03:55:38;;;;;;;11.10;6.28;;;;;;;-0.59;78.21;92690.00;2065136;69;20232;-78
2022/12/03 03:58:05;;;;;;;13.02;7.00;;;;;;;-0.73;78.88;92685.81;2064912;69;20144;-78
2022/12/03 04:00:31;;;;;;;14.00;6.85;;;;;;;-0.57;78.96;92686.69;2064557;69;20612;-78
2022/12/03 04:02:57;;;;;;;12.85;6.93;;;;;;;-0.63;78.10;92695.13;2064468;69;20223;-79
2022/12/03 04:05:24;;;;;;;11.23;6.82;;;;;;;-0.75;79.86;92701.44;2065797;69;20168;-79
2022/12/03 04:07:50;;;;;;;13.63;7.10;;;;;;;-0.70;78.92;92679.19;2064373;69;20195;-78
2022/12/03 04:13:01;;;;;;;11.60;6.07;;;;;;;-0.61;79.42;92683.50;2064929;69;20140;-79
2022/12/03 04:15:27;;;;;;;10.70;5.80;;;;;;;-0.76;79.34;92670.28;2064651;69;20145;-78
2022/12/03 04:20:40;;;;;;;11.63;6.47;;;;;;;-0.68;78.55;92695.25;2064837;69;20233;-78
2022/12/03 04:23:08;;;;;;;11.10;6.00;;;;;;;-0.65;78.37;92697.66;2064759;69;20176;-79
2022/12/03 04:36:43;;;;;;;11.00;6.18;;;;;;;-0.58;78.57;92696.25;2064618;69;20177;-78
2022/12/03 04:39:08;;;;;;;13.48;6.47;;;;;;;-0.62;78.28;92698.63;2064046;69;20551;-78
2022/12/03 04:41:34;;;;;;;13.98;7.03;;;;;;;-0.68;79.24;92690.47;2064443;69;20234;-80
2022/12/03 04:46:44;;;;;;;12.27;6.60;;;;;;;-0.79;79.68;92691.44;2063775;69;20163;-78
2022/12/03 04:49:11;;;;;;;11.43;6.38;;;;;;;-0.87;80.04;92693.41;2064212;69;20237;-79
2022/12/03 04:51:37;;;;;;;11.82;6.25;;;;;;;-0.90;81.72;92691.72;2063776;69;20161;-78
2022/12/03 04:54:03;;;;;;;12.30;6.75;;;;;;;-0.70;79.83;92698.53;2064340;69;20508;-79
2022/12/03 04:56:28;;;;;;;13.43;7.10;;;;;;;-0.70;79.19;92692.28;2064405;69;20610;-78
2022/12/03 04:58:54;;;;;;;14.75;7.65;;;;;;;-0.91;79.18;92668.13;2063812;69;20232;-79
2022/12/03 05:01:20;;;;;;;20.02;8.13;;;;;;;-0.75;80.02;92704.19;2064737;69;20189;-79
2022/12/03 05:03:45;;;;;;;14.10;7.53;;;;;;;-0.70;79.76;92701.31;2064372;69;20183;-78
2022/12/03 05:06:11;;;;;;;16.95;7.93;;;;;;;-0.76;78.93;92706.22;2064674;69;20145;-77
2022/12/03 05:08:36;;;;;;;15.02;7.60;;;;;;;-0.84;78.74;92692.31;2064076;69;20176;-78
2022/12/03 05:11:02;;;;;;;14.75;7.22;;;;;;;-0.88;78.27;92697.44;2064783;69;20548;-79
2022/12/03 05:13:28;;;;;;;13.43;7.38;;;;;;;-0.80;79.90;92703.78;2064621;69;20125;-78
2022/12/03 05:15:53;;;;;;;15.10;7.45;;;;;;;-0.76;79.04;92706.22;2064612;69;20593;-79
2022/12/03 05:18:19;;;;;;;15.30;7.82;;;;;;;-0.84;79.70;92708.16;2064489;69;20199;-79
2022/12/03 05:20:44;;;;;;;15.20;8.32;;;;;;;-0.79;79.35;92704.53;2064621;69;20626;-78
2022/12/03 05:23:12;;;;;;;14.32;7.32;;;;;;;-0.64;79.18;92701.16;2064571;69;20161;-78
2022/12/03 05:25:39;;;;;;;12.82;7.50;;;;;;;-0.70;78.61;92695.03;2064867;69;20155;-79
2022/12/03 05:28:06;;;;;;;11.50;7.00;;;;;;;-0.70;78.66;92704.06;2064625;69;20177;-78
2022/12/03 05:30:32;;;;;;;8.18;4.72;;;;;;;-0.61;79.39;92708.41;2064573;69;20600;-75
2022/12/03 05:32:57;;;;;;;12.52;6.30;;;;;;;-0.75;78.96;92706.97;2064570;69;20169;-76
2022/12/03 05:35:23;;;;;;;11.82;6.22;;;;;;;-0.83;78.67;92704.13;2064198;69;20211;-76
2022/12/03 05:37:51;;;;;;;13.07;6.72;;;;;;;-0.69;79.02;92694.47;2064570;69;20188;-76
2022/12/03 05:40:17;;;;;;;12.75;6.57;;;;;;;-0.72;78.55;92700.38;2064746;69;20312;-77
2022/12/03 05:42:59;;;;;;;12.13;6.55;;;;;;;-0.67;78.61;92708.53;2064540;69;20147;-77
2022/12/03 05:45:31;;;;;;;11.35;6.00;;;;;;;-0.64;78.11;92701.94;2064673;69;20264;-77
2022/12/03 05:47:58;;;;;;;10.82;6.40;;;;;;;-0.70;77.67;92692.28;2061130;69;20180;-78
2022/12/03 05:50:26;;;;;;;22.25;11.52;;;;;;;-0.75;79.10;92706.97;2063959;69;20179;-77
2022/12/03 05:52:53;;;;;;;21.05;10.07;;;;;;;-0.72;79.51;92697.59;2064630;69;20152;-77
2022/12/03 05:55:19;;;;;;;13.80;7.88;;;;;;;-0.62;79.17;92704.88;2064108;69;20148;-78
2022/12/03 05:57:45;;;;;;;17.98;9.35;;;;;;;-0.68;79.13;92695.25;2065102;69;20180;-77
2022/12/03 06:00:20;;;;;;;23.25;10.98;;;;;;;-0.74;78.80;92702.91;2065135;69;20168;-77
2022/12/03 06:02:46;;;;;;;32.65;14.32;;;;;;;-0.86;79.48;92696.91;2064969;69;20275;-77
2022/12/03 06:05:13;;;;;;;33.08;15.32;;;;;;;-0.86;80.41;92697.66;2064634;69;20556;-76
2022/12/03 06:07:39;;;;;;;29.00;13.85;;;;;;;-0.81;79.11;92696.78;2066173;69;20135;-78
2022/12/03 06:10:07;;;;;;;28.10;13.88;;;;;;;-0.79;79.12;92691.44;2065120;69;20161;-77
2022/12/03 06:12:33;;;;;;;28.65;14.68;;;;;;;-0.73;78.59;92690.56;2065150;69;20153;-77
2022/12/03 06:15:00;;;;;;;27.25;12.52;;;;;;;-0.78;78.62;92670.84;2065056;69;20145;-78
2022/12/03 06:17:26;;;;;;;24.20;11.82;;;;;;;-0.74;79.15;92681.53;2064986;69;20161;-77
2022/12/03 06:19:52;;;;;;;19.88;10.45;;;;;;;-0.66;79.34;92698.22;2064954;69;20234;-76
2022/12/03 06:22:18;;;;;;;22.15;11.60;;;;;;;-0.79;79.01;92690.69;2065096;69;20535;-77
2022/12/03 06:24:45;;;;;;;23.88;11.48;;;;;;;-1.04;79.00;92693.78;2065061;69;20218;-77
2022/12/03 06:27:10;;;;;;;25.98;13.20;;;;;;;-0.96;78.89;92693.88;2065110;69;20214;-77
2022/12/03 06:29:36;;;;;;;26.50;13.32;;;;;;;-0.94;78.70;92685.78;2064903;69;20200;-80
2022/12/03 06:32:03;;;;;;;25.50;14.02;;;;;;;-0.96;79.18;92693.88;2065088;69;20588;-78
2022/12/03 06:34:29;;;;;;;26.70;13.77;;;;;;;-0.86;79.41;92696.91;2064878;69;20230;-80
2022/12/03 06:36:54;;;;;;;24.70;13.57;;;;;;;-0.86;78.95;92703.19;2065047;69;20569;-79
2022/12/03 06:39:20;;;;;;;23.98;12.65;;;;;;;-0.82;78.74;92709.13;2064971;69;20191;-79
2022/12/03 06:41:45;;;;;;;26.38;12.88;;;;;;;-0.74;79.10;92702.91;2065130;69;20662;-77
2022/12/03 06:44:11;;;;;;;20.83;11.30;;;;;;;-0.72;78.98;92686.53;2064943;69;20184;-77
2022/12/03 06:46:37;;;;;;;19.95;11.82;;;;;;;-0.68;78.97;92698.00;2064994;69;20238;-77
2022/12/03 06:49:03;;;;;;;21.75;11.25;;;;;;;-0.69;79.18;92693.75;2065043;69;20263;-77
2022/12/03 06:51:29;;;;;;;24.92;14.02;;;;;;;-0.94;79.88;92696.09;2064460;69;20161;-78
2022/12/03 06:53:54;;;;;;;24.67;12.60;;;;;;;-0.97;79.69;92697.16;2064470;69;20473;-79
2022/12/03 06:56:20;;;;;;;23.77;12.35;;;;;;;-0.87;78.66;92693.41;2065154;69;20221;-79
2022/12/03 06:58:46;;;;;;;30.20;15.45;;;;;;;-0.82;78.97;92700.84;2064923;69;20153;-80
2022/12/03 07:01:11;;;;;;;28.80;14.70;;;;;;;-0.85;78.94;92693.59;2064958;69;20137;-79
2022/12/03 07:03:37;;;;;;;25.55;12.70;;;;;;;-0.84;79.22;92697.09;2064968;69;20192;-80
2022/12/03 07:06:02;;;;;;;26.10;13.23;;;;;;;-0.91;79.14;92709.59;2065085;69;20165;-79
2022/12/03 07:08:28;;;;;;;27.33;13.55;;;;;;;-0.90;78.83;92707.56;2065037;69;20133;-80
2022/12/03 07:10:54;;;;;;;29.38;15.27;;;;;;;-0.91;78.90;92701.28;2064951;69;20152;-79
2022/12/03 07:13:19;;;;;;;29.83;16.40;;;;;;;-0.84;79.26;92710.94;2065226;69;20149;-78
2022/12/03 07:15:47;;;;;;;29.30;15.55;;;;;;;-0.75;78.86;92702.19;2065178;69;20644;-78
2022/12/03 07:18:13;;;;;;;74.28;28.63;;;;;;;-0.97;79.44;92684.06;2064964;69;20569;-78
2022/12/03 07:20:39;;;;;;;81.90;32.95;;;;;;;-0.71;79.14;92699.09;2065351;69;20147;-77
2022/12/03 07:23:04;;;;;;;73.32;27.95;;;;;;;-0.66;79.35;92698.94;2064908;69;20691;-81
2022/12/03 07:25:30;;;;;;;54.15;22.65;;;;;;;-0.69;80.09;92699.28;2064952;69;20157;-79
2022/12/03 07:27:55;;;;;;;57.42;23.63;;;;;;;-0.58;79.19;92702.53;2064923;69;20418;-81
2022/12/03 07:30:23;;;;;;;46.28;19.75;;;;;;;-0.54;79.28;92699.44;2065011;69;20243;-80
2022/12/03 07:32:49;;;;;;;39.35;17.08;;;;;;;-0.47;79.26;92696.00;2064882;69;20216;-80
2022/12/03 07:35:15;;;;;;;43.60;19.70;;;;;;;-0.42;79.33;92697.88;2065114;69;20137;-78
2022/12/03 07:37:40;;;;;;;61.42;26.50;;;;;;;-0.33;79.27;92704.97;2065096;69;20602;-81
2022/12/03 07:40:06;;;;;;;76.00;32.13;;;;;;;-0.21;79.03;92702.69;2065032;69;20184;-79
2022/12/03 07:42:32;;;;;;;87.68;37.50;;;;;;;-0.14;79.65;92690.91;2065499;69;20145;-76
2022/12/03 07:44:58;;;;;;;80.55;30.92;;;;;;;-0.08;79.71;92688.75;2067689;69;20148;-78
2022/12/03 07:47:23;;;;;;;92.97;38.97;;;;;;;0.02;78.91;92692.53;2064930;69;20559;-78
2022/12/03 07:49:49;;;;;;;120.28;48.83;;;;;;;-0.05;79.25;92696.69;2064825;69;20170;-79
2022/12/03 07:52:14;;;;;;;85.30;37.25;;;;;;;0.08;79.45;92679.25;2064959;69;20144;-79
2022/12/03 07:54:40;;;;;;;77.93;36.00;;;;;;;0.11;79.50;92689.25;2064926;69;20129;-79
2022/12/03 07:57:06;;;;;;;59.47;29.98;;;;;;;-0.03;79.51;92647.09;2064907;69;20168;-81
2022/12/03 07:59:32;;;;;;;56.65;26.05;;;;;;;0.31;79.46;92689.75;2064763;69;20157;-80
2022/12/03 08:01:57;;;;;;;53.45;26.52;;;;;;;0.12;79.77;92690.72;2064804;69;20148;-80
2022/12/03 08:04:23;;;;;;;58.95;28.25;;;;;;;0.46;79.55;92690.59;2064664;69;20153;-81
2022/12/03 08:06:49;;;;;;;51.33;25.08;;;;;;;0.57;79.56;92681.22;2064949;69;20159;-80
2022/12/03 08:09:15;;;;;;;50.13;25.08;;;;;;;0.57;79.30;92688.78;2064989;69;20179;-81
2022/12/03 08:11:41;;;;;;;42.28;21.42;;;;;;;0.75;79.07;92694.06;2064909;69;20492;-83
2022/12/03 08:14:12;;;;;;;47.17;23.35;;;;;;;0.79;79.07;92679.09;2061489;69;20259;-83
2022/12/03 08:16:40;;;;;;;54.30;27.48;;;;;;;0.72;78.34;92681.28;2065052;69;20153;-81
2022/12/03 08:19:11;;;;;;;62.30;33.08;;;;;;;0.67;78.60;92692.53;2064912;69;20156;-84
2022/12/03 08:21:37;;;;;;;62.58;32.25;;;;;;;0.87;79.18;92685.41;2064082;69;20707;-82
2022/12/03 08:24:17;;;;;;;56.63;28.98;;;;;;;0.97;78.37;92678.06;2064811;69;20337;-76
2022/12/03 08:26:44;;;;;;;47.85;24.40;;;;;;;0.91;78.28;92680.97;2064407;69;20125;-78
2022/12/03 08:29:12;;;;;;;60.58;31.80;;;;;;;1.04;78.73;92676.59;2064910;69;20168;-77
2022/12/03 08:31:38;;;;;;;68.85;32.53;;;;;;;0.94;78.70;92677.13;2065651;69;20141;-84
2022/12/03 08:34:25;;;;;;;51.13;27.92;;;;;;;1.14;78.65;92685.88;2068256;69;20219;-77
2022/12/03 08:37:15;;;;;;;57.35;29.30;;;;;;;1.25;78.86;92683.50;2069065;69;20407;-85
2022/12/03 08:39:45;;;;;;;52.25;27.60;;;;;;;1.41;78.32;92675.22;2062976;69;20152;-79
2022/12/03 08:42:41;;;;;;;46.80;25.45;;;;;;;1.48;78.13;92671.72;2065129;69;20236;-82
2022/12/03 08:45:42;;;;;;;41.45;23.13;;;;;;;1.61;78.13;92668.03;2065071;69;20604;-78
2022/12/03 08:48:18;;;;;;;;;;;;;;;1.73;77.36;92664.31;2050382;70;20154;-78
2022/12/03 08:50:44;;;;;;;46.60;23.70;;;;;;;1.82;78.10;92670.63;2050236;70;20047;-78
2022/12/03 08:53:31;;;;;;;40.90;21.55;;;;;;;1.91;77.44;92665.25;2050364;70;20146;-78
2022/12/03 08:55:59;;;;;;;31.23;17.65;;;;;;;1.67;77.92;92666.56;2049789;70;20262;-78
2022/12/03 08:58:43;;;;;;;34.40;20.35;;;;;;;1.84;77.85;92662.50;2050367;70;20150;-77
2022/12/03 09:01:09;;;;;;;34.28;20.33;;;;;;;1.59;77.53;92671.34;2050209;70;20146;-76
2022/12/03 09:03:38;;;;;;;38.80;21.88;;;;;;;1.76;78.26;92668.03;2050052;70;20151;-78
2022/12/03 09:06:04;;;;;;;34.38;19.88;;;;;;;1.93;77.83;92664.72;2047422;70;20149;-79
2022/12/03 09:08:30;;;;;;;35.15;21.15;;;;;;;2.04;77.36;92667.84;2044788;70;20225;-77
2022/12/03 09:10:56;;;;;;;35.05;21.02;;;;;;;1.97;77.25;92668.59;2050224;70;20155;-80
2022/12/03 09:13:22;;;;;;;37.50;20.98;;;;;;;2.13;78.47;92674.88;2050252;70;20154;-81
2022/12/03 09:15:48;;;;;;;32.42;21.02;;;;;;;2.08;77.41;92667.47;2050212;70;20189;-82
2022/12/03 09:18:15;;;;;;;34.63;20.02;;;;;;;2.07;76.71;92670.81;2050263;70;20372;-79
2022/12/03 09:20:40;;;;;;;37.33;21.05;;;;;;;2.23;77.14;92661.16;2048278;70;20281;-80
2022/12/03 09:23:06;;;;;;;34.83;21.38;;;;;;;2.41;77.35;92667.63;2063741;69;20164;-80
2022/12/03 09:25:32;;;;;;;45.75;24.38;;;;;;;2.24;76.73;92657.81;2064911;69;20144;-77
2022/12/03 09:27:58;;;;;;;42.42;23.65;;;;;;;2.23;77.15;92659.13;2064689;69;20162;-82
2022/12/03 09:30:23;;;;;;;42.80;22.52;;;;;;;2.40;77.00;92649.47;2064686;69;20148;-78
2022/12/03 09:32:49;;;;;;;42.45;24.10;;;;;;;2.47;76.27;92646.66;2064786;69;20273;-78
2022/12/03 09:35:15;;;;;;;37.80;22.33;;;;;;;2.32;76.23;92637.63;2064583;69;20622;-77
2022/12/03 09:37:40;;;;;;;36.17;20.23;;;;;;;2.46;75.89;92636.84;2064767;69;20476;-78
2022/12/03 09:40:08;;;;;;;28.20;16.33;;;;;;;2.59;76.69;92640.72;2064694;69;20202;-79
2022/12/03 09:42:33;;;;;;;30.65;17.67;;;;;;;2.75;77.19;92642.88;2064518;69;20236;-77
2022/12/03 09:45:00;;;;;;;39.47;22.42;;;;;;;2.51;75.87;92638.69;2064138;69;20172;-78
2022/12/03 09:47:26;;;;;;;46.92;24.20;;;;;;;2.72;76.04;92632.16;2064767;69;20192;-78
2022/12/03 09:49:51;;;;;;;45.97;25.88;;;;;;;2.66;76.74;92632.34;2064446;69;20630;-78
2022/12/03 09:52:25;;;;;;;38.55;21.00;;;;;;;2.49;77.68;92623.88;2064749;69;20149;-77
2022/12/03 09:54:51;;;;;;;51.17;28.63;;;;;;;2.79;76.95;92617.47;2064454;69;20246;-79
2022/12/03 09:57:17;;;;;;;50.58;27.10;;;;;;;2.97;76.00;92618.31;2064845;69;20584;-78
2022/12/03 09:59:43;;;;;;;37.17;21.13;;;;;;;2.80;75.80;92614.13;2065049;69;20172;-78
2022/12/03 10:02:21;;;;;;;42.20;22.88;;;;;;;2.70;77.23;92607.69;2064708;69;20135;-79
2022/12/03 10:04:47;;;;;;;33.70;20.20;;;;;;;2.88;75.30;92610.56;2064638;69;20564;-75
2022/12/03 10:07:13;;;;;;;38.22;22.42;;;;;;;3.09;75.83;92596.38;2064554;69;20152;-77
2022/12/03 10:09:39;;;;;;;41.28;23.90;;;;;;;3.09;75.22;92599.16;2064609;69;20481;-76
2022/12/03 10:12:05;;;;;;;43.40;23.88;;;;;;;3.24;75.49;92602.59;2064672;69;20500;-76
2022/12/03 10:14:31;;;;;;;40.33;23.38;;;;;;;2.88;74.55;92591.84;2064618;69;20164;-79
2022/12/03 10:16:57;;;;;;;39.85;24.08;;;;;;;3.14;75.17;92587.09;2064508;69;20689;-78
2022/12/03 10:19:31;;;;;;;46.22;25.20;;;;;;;3.35;75.03;92590.28;2064334;69;20153;-78
2022/12/03 10:21:57;;;;;;;40.38;24.05;;;;;;;3.46;74.57;92581.47;2064485;69;20628;-78
2022/12/03 10:24:32;;;;;;;39.90;23.65;;;;;;;3.56;75.11;92578.81;2064422;69;20140;-81
2022/12/03 10:27:01;;;;;;;40.05;22.77;;;;;;;3.67;73.84;92572.81;2064514;69;20215;-79
2022/12/03 10:29:32;;;;;;;33.53;19.88;;;;;;;3.81;73.70;92581.59;2066859;69;20379;-78
2022/12/03 10:32:09;;;;;;;24.20;13.93;;;;;;;3.54;73.42;92564.75;2067911;69;20144;-79
2022/12/03 10:34:39;;;;;;;16.10;9.60;;;;;;;4.04;72.44;92564.69;2067732;69;20640;-77
2022/12/03 10:37:08;;;;;;;16.20;9.52;;;;;;;4.48;72.31;92566.81;2067689;69;20164;-79
2022/12/03 10:39:50;;;;;;;14.80;8.65;;;;;;;4.99;72.11;92563.19;2067922;69;20129;-80
2022/12/03 10:42:18;;;;;;;14.70;9.70;;;;;;;5.14;70.95;92558.75;2067737;69;20163;-79
2022/12/03 10:44:44;;;;;;;12.23;7.32;;;;;;;5.31;69.34;92553.84;2067675;69;20647;-80
2022/12/03 10:47:12;;;;;;;8.48;6.18;;;;;;;5.50;69.55;92552.47;2068300;69;20137;-81
2022/12/03 10:49:40;;;;;;;11.80;7.35;;;;;;;5.36;67.65;92546.53;2068406;69;20187;-80
2022/12/03 10:52:21;;;;;;;9.57;6.32;;;;;;;5.82;67.17;92543.75;2068437;69;20129;-77
2022/12/03 10:54:48;;;;;;;7.65;5.20;;;;;;;6.39;66.25;92541.66;2068525;69;20167;-77
2022/12/03 10:57:14;;;;;;;13.82;8.43;;;;;;;6.88;66.07;92537.53;2070421;69;20164;-81
2022/12/03 10:59:42;;;;;;;13.13;8.30;;;;;;;6.68;64.87;92535.31;2068622;69;20159;-76
2022/12/03 11:02:23;;;;;;;12.77;6.43;;;;;;;6.20;62.73;92531.19;2068309;69;20165;-80
2022/12/03 11:04:50;;;;;;;14.02;8.88;;;;;;;6.77;63.03;92532.50;2068152;69;20152;-79
2022/12/03 11:07:23;;;;;;;12.60;7.30;;;;;;;8.16;60.49;92525.25;2067819;69;20145;-80
2022/12/03 11:09:50;;;;;;;5.47;3.95;;;;;;;9.28;56.38;92529.66;2068227;69;20228;-79
2022/12/03 11:12:20;;;;;;;4.80;3.47;;;;;;;8.11;55.52;92529.84;2068272;69;20151;-80
2022/12/03 11:14:53;;;;;;;8.75;7.00;;;;;;;7.66;57.60;92526.09;2068364;69;20143;-76
2022/12/03 11:17:42;;;;;;;9.82;6.93;;;;;;;7.95;56.39;92523.16;2068329;69;20184;-79
2022/12/03 11:20:30;;;;;;;8.48;5.22;;;;;;;7.45;58.04;92520.44;2068520;69;20157;-83
2022/12/03 11:22:57;;;;;;;16.40;10.52;;;;;;;6.48;60.95;92504.56;2067815;69;20191;-77
2022/12/03 11:25:24;;;;;;;17.80;11.85;;;;;;;6.34;64.54;92515.47;2068553;69;20668;-80
2022/12/03 11:28:14;;;;;;;18.10;11.32;;;;;;;6.79;63.24;92496.28;2070135;69;20219;-78
2022/12/03 11:30:52;;;;;;;21.73;11.88;;;;;;;6.87;62.30;92504.50;2072834;69;20194;-78
2022/12/03 11:33:23;;;;;;;17.25;11.07;;;;;;;6.83;62.54;92502.19;2072648;69;20209;-79
2022/12/03 11:36:02;;;;;;;17.20;11.10;;;;;;;6.62;62.71;92502.06;2069489;69;20136;-78
2022/12/03 11:38:40;;;;;;;19.40;11.52;;;;;;;6.22;64.52;92497.06;2073034;69;20372;-75
2022/12/03 11:41:18;;;;;;;16.48;11.77;;;;;;;6.08;65.38;92497.47;2071697;69;20136;-80
2022/12/03 11:43:56;;;;;;;19.52;11.50;;;;;;;6.27;65.41;92488.38;2071678;69;20183;-78
2022/12/03 11:46:26;;;;;;;17.60;11.00;;;;;;;6.20;64.07;92488.53;2068291;69;20145;-77
2022/12/03 11:48:54;;;;;;;18.15;9.85;;;;;;;6.49;64.38;92483.66;2071828;69;20154;-79
2022/12/03 11:51:23;;;;;;;19.67;11.02;;;;;;;6.44;64.50;92486.75;2071762;69;20141;-80
2022/12/03 11:53:50;;;;;;;16.58;10.23;;;;;;;6.63;64.28;92481.88;2071922;69;20201;-82
2022/12/03 11:56:22;;;;;;;16.40;9.90;;;;;;;6.78;63.43;92478.03;2072148;69;20160;-80